createdAt,value
2022-07-29T00:01:44.710Z,20.28
2022-07-29T00:04:13.819Z,20.24
2022-07-29T00:06:42.370Z,20.20
2022-07-29T00:09:10.278Z,20.13
2022-07-29T00:11:38.321Z,20.09
2022-07-29T00:14:06.390Z,20.06
2022-07-29T00:16:34.380Z,20.07
2022-07-29T00:19:04.181Z,20.06
2022-07-29T00:21:32.139Z,20.04
2022-07-29T00:23:59.936Z,19.98
2022-07-29T00:26:32.419Z,19.97
2022-07-29T00:29:31.971Z,20.00
2022-07-29T00:31:49.134Z,19.95
2022-07-29T00:34:37.124Z,19.97
2022-07-29T00:37:04.962Z,19.89
2022-07-29T00:39:35.648Z,19.85
2022-07-29T00:42:05.346Z,19.84
2022-07-29T00:44:38.321Z,19.84
2022-07-29T00:47:07.075Z,19.81
2022-07-29T00:49:37.611Z,19.79
2022-07-29T00:52:08.322Z,19.73
2022-07-29T00:54:39.838Z,19.64
2022-07-29T00:57:14.178Z,19.62
2022-07-29T00:59:42.202Z,19.55
2022-07-29T01:02:10.136Z,19.54
2022-07-29T01:04:40.864Z,19.55
2022-07-29T01:07:09.093Z,19.55
2022-07-29T01:09:45.959Z,19.59
2022-07-29T01:12:19.206Z,19.57
2022-07-29T01:14:49.419Z,19.53
2022-07-29T01:17:26.869Z,19.47
2022-07-29T01:20:08.219Z,19.45
2022-07-29T01:22:56.039Z,19.33
2022-07-29T01:25:59.398Z,19.27
2022-07-29T01:29:06.075Z,19.26
2022-07-29T01:31:59.578Z,19.23
2022-07-29T01:34:42.728Z,19.23
2022-07-29T01:37:20.886Z,19.22
2022-07-29T01:39:53.310Z,19.19
2022-07-29T01:42:30.543Z,19.08
2022-07-29T01:45:15.224Z,19.04
2022-07-29T01:47:54.589Z,18.96
2022-07-29T01:50:32.768Z,18.96
2022-07-29T01:53:05.531Z,18.93
2022-07-29T01:55:39.396Z,18.93
2022-07-29T01:58:11.469Z,19.03
2022-07-29T02:00:43.662Z,18.99
2022-07-29T02:03:15.567Z,18.97
2022-07-29T02:05:47.739Z,18.93
2022-07-29T02:08:20.636Z,18.90
2022-07-29T02:10:52.350Z,18.89
2022-07-29T02:13:25.662Z,18.89
2022-07-29T02:15:58.219Z,18.95
2022-07-29T02:18:31.293Z,18.98
2022-07-29T02:21:02.037Z,18.93
2022-07-29T02:23:51.164Z,18.88
2022-07-29T02:26:23.033Z,18.86
2022-07-29T02:28:55.433Z,18.88
2022-07-29T02:31:35.315Z,18.87
2022-07-29T02:34:07.412Z,18.91
2022-07-29T02:36:35.964Z,18.86
2022-07-29T02:39:06.061Z,18.80
2022-07-29T02:41:45.350Z,18.79
2022-07-29T02:44:16.896Z,18.85
2022-07-29T02:46:54.492Z,18.79
2022-07-29T02:49:39.430Z,18.84
2022-07-29T02:52:16.855Z,18.83
2022-07-29T02:54:54.787Z,18.81
2022-07-29T02:57:32.564Z,18.72
2022-07-29T03:00:06.803Z,18.66
2022-07-29T03:02:40.734Z,18.62
2022-07-29T03:05:14.071Z,18.59
2022-07-29T03:07:46.620Z,18.61
2022-07-29T03:10:17.461Z,18.59
2022-07-29T03:12:46.047Z,18.61
2022-07-29T03:15:14.935Z,18.57
2022-07-29T03:17:44.854Z,18.54
2022-07-29T03:20:14.148Z,18.57
2022-07-29T03:22:44.567Z,18.57
2022-07-29T03:25:14.650Z,18.55
2022-07-29T03:27:44.097Z,18.50
2022-07-29T03:30:18.398Z,18.51
2022-07-29T03:32:52.826Z,18.53
2022-07-29T03:35:21.273Z,18.44
2022-07-29T03:37:49.868Z,18.54
2022-07-29T03:40:26.754Z,18.50
2022-07-29T03:42:57.040Z,18.47
2022-07-29T03:45:27.628Z,18.48
2022-07-29T03:48:06.437Z,18.49
2022-07-29T03:50:35.632Z,18.44
2022-07-29T03:53:04.732Z,18.55
2022-07-29T03:55:41.167Z,18.59
2022-07-29T03:58:11.828Z,18.57
2022-07-29T04:00:42.792Z,18.60
2022-07-29T04:03:12.320Z,18.60
2022-07-29T04:05:43.523Z,18.61
2022-07-29T04:08:11.417Z,18.63
2022-07-29T04:10:39.645Z,18.66
2022-07-29T04:13:07.457Z,18.62
2022-07-29T04:15:35.387Z,18.64
2022-07-29T04:18:03.478Z,18.65
2022-07-29T04:20:32.620Z,18.69
2022-07-29T04:23:00.360Z,18.65
2022-07-29T04:25:28.153Z,18.69
2022-07-29T04:28:01.556Z,18.66
2022-07-29T04:30:30.748Z,18.57
2022-07-29T04:32:58.719Z,18.56
2022-07-29T04:35:26.540Z,18.60
2022-07-29T04:37:55.700Z,18.59
2022-07-29T04:40:23.904Z,18.65
2022-07-29T04:42:51.687Z,18.65
2022-07-29T04:45:22.322Z,18.73
2022-07-29T04:47:50.622Z,18.79
2022-07-29T04:50:18.874Z,18.82
2022-07-29T04:52:47.663Z,18.88
2022-07-29T04:55:17.085Z,18.81
2022-07-29T04:57:44.921Z,18.90
2022-07-29T05:00:13.948Z,18.94
2022-07-29T05:02:41.926Z,18.94
2022-07-29T05:05:10.231Z,18.98
2022-07-29T05:07:38.076Z,19.01
2022-07-29T05:10:07.020Z,19.07
2022-07-29T05:12:36.442Z,19.15
2022-07-29T05:15:05.952Z,19.17
2022-07-29T05:17:33.733Z,19.32
2022-07-29T05:20:02.708Z,19.42
2022-07-29T05:22:30.492Z,19.41
2022-07-29T05:24:58.279Z,19.39
2022-07-29T05:27:26.174Z,19.52
2022-07-29T05:29:55.291Z,19.56
2022-07-29T05:32:23.083Z,19.68
2022-07-29T05:34:51.912Z,19.48
2022-07-29T05:37:20.200Z,19.39
2022-07-29T05:39:50.465Z,19.34
2022-07-29T05:42:24.855Z,19.64
2022-07-29T05:44:52.865Z,19.73
2022-07-29T05:47:23.008Z,19.70
2022-07-29T05:49:51.545Z,19.62
2022-07-29T05:52:19.731Z,19.61
2022-07-29T05:54:47.895Z,19.63
2022-07-29T05:57:20.055Z,19.69
2022-07-29T05:59:49.048Z,19.61
2022-07-29T06:02:17.901Z,19.50
2022-07-29T06:04:47.141Z,19.49
2022-07-29T06:07:15.027Z,19.61
2022-07-29T06:09:43.126Z,19.52
2022-07-29T06:12:10.899Z,19.49
2022-07-29T06:14:39.135Z,19.66
2022-07-29T06:17:07.017Z,19.66
2022-07-29T06:19:36.257Z,19.54
2022-07-29T06:22:05.753Z,19.49
2022-07-29T06:24:33.616Z,19.57
2022-07-29T06:27:01.386Z,19.50
2022-07-29T06:29:29.250Z,19.32
2022-07-29T06:31:57.044Z,19.19
2022-07-29T06:34:24.819Z,19.40
2022-07-29T06:36:53.708Z,19.46
2022-07-29T06:39:23.443Z,19.69
2022-07-29T06:41:51.666Z,19.70
2022-07-29T06:44:20.481Z,19.79
2022-07-29T06:46:50.889Z,19.78
2022-07-29T06:49:18.760Z,19.72
2022-07-29T06:51:46.659Z,19.86
2022-07-29T06:54:14.808Z,19.83
2022-07-29T06:56:44.422Z,19.77
2022-07-29T06:59:13.273Z,19.65
2022-07-29T07:01:43.760Z,19.84
2022-07-29T07:04:12.537Z,19.75
2022-07-29T07:06:40.804Z,19.80
2022-07-29T07:09:08.575Z,19.87
2022-07-29T07:11:36.569Z,19.96
2022-07-29T07:14:05.731Z,19.90
2022-07-29T07:16:33.805Z,20.00
2022-07-29T07:19:02.045Z,20.00
2022-07-29T07:21:30.665Z,20.06
2022-07-29T07:24:00.206Z,20.14
2022-07-29T07:26:29.210Z,20.08
2022-07-29T07:28:57.213Z,20.17
2022-07-29T07:31:26.681Z,20.23
2022-07-29T07:33:54.709Z,20.32
2022-07-29T07:36:23.387Z,20.38
2022-07-29T07:38:51.231Z,20.43
2022-07-29T07:41:19.276Z,20.41
2022-07-29T07:43:47.364Z,20.46
2022-07-29T07:46:15.737Z,20.39
2022-07-29T07:48:45.477Z,20.49
2022-07-29T07:51:13.473Z,20.59
2022-07-29T07:53:41.553Z,20.53
2022-07-29T07:56:11.368Z,20.52
2022-07-29T07:58:40.597Z,20.58
2022-07-29T08:01:09.111Z,20.41
2022-07-29T08:03:37.742Z,20.24
2022-07-29T08:06:07.444Z,20.28
2022-07-29T08:08:35.278Z,20.11
2022-07-29T08:11:08.951Z,20.20
2022-07-29T08:13:38.957Z,20.24
2022-07-29T08:16:15.876Z,20.14
2022-07-29T08:18:46.184Z,19.90
2022-07-29T08:21:16.620Z,19.75
2022-07-29T08:24:15.290Z,19.56
2022-07-29T08:26:44.186Z,19.32
2022-07-29T08:29:15.041Z,19.19
2022-07-29T08:31:46.831Z,19.05
2022-07-29T08:34:14.665Z,18.85
2022-07-29T08:36:43.775Z,18.75
2022-07-29T08:39:11.528Z,18.69
2022-07-29T08:41:40.618Z,18.62
2022-07-29T08:44:30.449Z,18.60
2022-07-29T08:46:58.952Z,18.58
2022-07-29T08:49:26.763Z,18.60
2022-07-29T08:51:59.672Z,18.65
2022-07-29T08:54:29.211Z,18.63
2022-07-29T08:56:58.140Z,18.60
2022-07-29T08:59:29.107Z,18.53
2022-07-29T09:02:01.222Z,18.83
2022-07-29T09:04:35.278Z,18.86
2022-07-29T09:07:06.845Z,18.94
2022-07-29T09:09:35.152Z,19.12
2022-07-29T09:12:04.897Z,19.31
2022-07-29T09:14:32.721Z,19.42
2022-07-29T09:17:01.970Z,19.35
2022-07-29T09:19:32.687Z,19.02
2022-07-29T09:22:03.270Z,18.57
2022-07-29T09:24:42.564Z,18.40
2022-07-29T09:27:21.351Z,18.45
2022-07-29T09:29:58.278Z,18.62
2022-07-29T09:32:27.491Z,18.57
2022-07-29T09:35:19.876Z,18.40
2022-07-29T09:37:49.566Z,18.39
2022-07-29T09:40:21.970Z,18.42
2022-07-29T09:42:50.878Z,18.50
2022-07-29T09:45:30.182Z,18.45
2022-07-29T09:48:04.233Z,18.44
2022-07-29T09:50:40.880Z,18.47
2022-07-29T09:53:11.995Z,18.55
2022-07-29T09:55:52.486Z,18.63
2022-07-29T09:58:23.418Z,18.63
2022-07-29T10:00:54.383Z,18.68
2022-07-29T10:03:23.272Z,18.74
2022-07-29T10:06:07.425Z,18.72
2022-07-29T10:08:36.069Z,18.70
2022-07-29T10:11:13.928Z,18.75
2022-07-29T10:13:44.651Z,18.90
2022-07-29T10:16:14.319Z,18.99
2022-07-29T10:18:44.475Z,19.21
2022-07-29T10:21:35.197Z,19.25
2022-07-29T10:24:02.046Z,19.49
2022-07-29T10:26:32.069Z,19.46
2022-07-29T10:29:00.498Z,19.63
2022-07-29T10:31:45.028Z,19.76
2022-07-29T10:34:32.624Z,19.86
2022-07-29T10:37:19.387Z,19.89
2022-07-29T10:40:25.545Z,19.99
2022-07-29T10:43:08.914Z,20.04
2022-07-29T10:45:36.830Z,19.94
2022-07-29T10:48:08.040Z,19.98
2022-07-29T10:50:56.309Z,20.02
2022-07-29T10:53:33.719Z,20.07
2022-07-29T10:56:02.453Z,20.08
2022-07-29T10:58:35.749Z,20.05
2022-07-29T11:01:37.201Z,20.08
2022-07-29T11:04:06.966Z,20.05
2022-07-29T11:07:09.033Z,19.99
2022-07-29T11:09:38.921Z,20.08
2022-07-29T11:12:49.288Z,19.97
2022-07-29T11:15:22.522Z,20.00
2022-07-29T11:18:07.677Z,19.98
2022-07-29T11:20:45.600Z,20.09
2022-07-29T11:23:26.004Z,20.10
2022-07-29T11:26:18.491Z,20.09
2022-07-29T11:29:03.434Z,20.19
2022-07-29T11:31:45.092Z,20.37
2022-07-29T11:37:25.670Z,20.39
2022-07-29T11:40:18.329Z,20.49
2022-07-29T11:42:48.162Z,20.65
2022-07-29T11:48:29.444Z,20.81
2022-07-29T11:51:00.988Z,20.81
2022-07-29T11:53:32.783Z,20.94
2022-07-29T11:56:02.596Z,20.93
2022-07-29T11:58:32.623Z,20.98
2022-07-29T12:01:04.539Z,20.93
2022-07-29T12:03:35.972Z,20.83
2022-07-29T12:06:14.257Z,20.87
2022-07-29T12:07:03.373Z,20.35
2022-07-29T12:08:44.793Z,20.98
2022-07-29T12:11:22.505Z,20.96
2022-07-29T12:13:52.110Z,21.01
2022-07-29T12:16:25.932Z,20.91
2022-07-29T12:18:59.257Z,20.97
2022-07-29T12:21:28.741Z,20.96
2022-07-29T12:24:03.509Z,21.07
2022-07-29T12:26:34.298Z,21.15
2022-07-29T12:29:04.137Z,21.25
2022-07-29T12:31:43.427Z,21.16
2022-07-29T12:34:13.670Z,21.09
2022-07-29T12:36:43.547Z,20.90
2022-07-29T12:39:12.461Z,20.93
2022-07-29T12:41:40.386Z,21.09
2022-07-29T12:44:08.257Z,21.05
2022-07-29T12:46:36.256Z,21.16
2022-07-29T12:49:05.744Z,21.23
2022-07-29T12:51:37.478Z,21.35
2022-07-29T12:54:09.275Z,21.37
2022-07-29T12:56:43.627Z,21.48
2022-07-29T12:59:18.819Z,21.33
2022-07-29T13:01:48.914Z,21.47
2022-07-29T13:04:31.435Z,21.54
2022-07-29T13:07:04.797Z,21.59
2022-07-29T13:09:41.234Z,21.86
2022-07-29T13:12:11.325Z,22.00
2022-07-29T13:14:41.192Z,22.17
2022-07-29T13:17:12.315Z,22.38
2022-07-29T13:19:43.905Z,22.55
2022-07-29T13:22:13.710Z,22.74
2022-07-29T13:24:50.410Z,22.69
2022-07-29T13:27:19.530Z,22.73
2022-07-29T13:29:47.818Z,22.76
2022-07-29T13:32:15.599Z,22.97
2022-07-29T13:34:44.816Z,23.18
2022-07-29T13:37:12.825Z,23.28
2022-07-29T13:39:40.811Z,23.65
2022-07-29T13:42:11.053Z,24.11
2022-07-29T13:44:39.128Z,24.59
2022-07-29T13:47:07.329Z,24.77
2022-07-29T13:49:36.245Z,25.13
2022-07-29T13:52:08.139Z,25.14
2022-07-29T13:54:42.383Z,25.48
2022-07-29T13:57:11.946Z,25.88
2022-07-29T13:59:40.961Z,26.46
2022-07-29T14:02:11.215Z,26.99
2022-07-29T14:04:39.722Z,27.58
2022-07-29T14:07:09.249Z,27.90
2022-07-29T14:09:41.671Z,28.00
2022-07-29T14:12:10.457Z,27.73
2022-07-29T14:14:38.325Z,27.46
2022-07-29T14:17:07.583Z,27.26
2022-07-29T14:19:36.569Z,27.27
2022-07-29T14:22:05.418Z,27.12
2022-07-29T14:24:37.061Z,27.14
2022-07-29T14:27:07.974Z,27.28
2022-07-29T14:29:37.473Z,27.13
2022-07-29T14:32:08.115Z,27.15
2022-07-29T14:34:36.530Z,27.25
2022-07-29T14:37:06.319Z,27.29
2022-07-29T14:39:42.923Z,27.36
2022-07-29T14:42:12.384Z,27.10
2022-07-29T14:44:42.094Z,26.96
2022-07-29T14:47:10.463Z,27.15
2022-07-29T14:49:38.534Z,26.91
2022-07-29T14:52:06.335Z,26.93
2022-07-29T14:54:34.334Z,27.13
2022-07-29T14:57:03.585Z,27.12
2022-07-29T14:59:31.646Z,27.35
2022-07-29T15:01:59.804Z,27.15
2022-07-29T15:04:27.842Z,26.95
2022-07-29T15:06:55.581Z,27.00
2022-07-29T15:09:24.204Z,26.98
2022-07-29T15:11:52.015Z,27.13
2022-07-29T15:14:21.161Z,26.99
2022-07-29T15:16:49.006Z,26.99
2022-07-29T15:19:16.912Z,27.16
2022-07-29T15:21:48.617Z,27.23
2022-07-29T15:24:17.660Z,27.42
2022-07-29T15:26:46.222Z,27.83
2022-07-29T15:29:14.697Z,28.10
2022-07-29T15:31:44.445Z,28.43
2022-07-29T15:34:12.327Z,28.32
2022-07-29T15:36:56.023Z,28.10
2022-07-29T15:39:23.929Z,28.21
2022-07-29T15:41:52.063Z,27.97
2022-07-29T15:44:21.120Z,28.10
2022-07-29T15:47:08.777Z,28.26
2022-07-29T15:49:47.266Z,28.54
2022-07-29T15:52:25.048Z,28.49
2022-07-29T15:54:55.489Z,28.46
2022-07-29T15:57:24.533Z,28.50
2022-07-29T15:59:52.725Z,28.51
2022-07-29T16:02:22.312Z,28.36
2022-07-29T16:04:50.143Z,28.48
2022-07-29T16:07:18.170Z,28.61
2022-07-29T16:09:50.746Z,28.81
2022-07-29T16:12:20.529Z,28.67
2022-07-29T16:14:49.453Z,28.57
2022-07-29T16:17:18.322Z,28.30
2022-07-29T16:19:48.237Z,28.56
2022-07-29T16:22:16.668Z,28.69
2022-07-29T16:24:44.573Z,28.74
2022-07-29T16:27:12.416Z,28.75
2022-07-29T16:29:40.197Z,28.63
2022-07-29T16:32:08.109Z,28.50
2022-07-29T16:34:35.951Z,28.59
2022-07-29T16:37:05.383Z,28.78
2022-07-29T16:39:33.658Z,29.04
2022-07-29T16:42:05.053Z,29.13
2022-07-29T16:44:34.898Z,29.04
2022-07-29T16:47:04.028Z,28.94
2022-07-29T16:49:32.542Z,28.95
2022-07-29T16:52:00.762Z,29.15
2022-07-29T16:54:30.240Z,29.14
2022-07-29T16:57:00.404Z,29.10
2022-07-29T16:59:29.590Z,29.05
2022-07-29T17:01:57.826Z,28.88
2022-07-29T17:04:27.406Z,28.95
2022-07-29T17:06:55.535Z,29.04
2022-07-29T17:09:24.267Z,29.10
2022-07-29T17:11:55.055Z,29.11
2022-07-29T17:14:25.270Z,28.94
2022-07-29T17:17:00.414Z,28.82
2022-07-29T17:19:33.576Z,28.90
2022-07-29T17:22:11.667Z,28.90
2022-07-29T17:24:42.657Z,28.81
2022-07-29T17:27:11.800Z,28.89
2022-07-29T17:29:40.122Z,28.92
2022-07-29T17:32:10.232Z,28.95
2022-07-29T17:34:40.360Z,28.91
2022-07-29T17:37:10.929Z,28.86
2022-07-29T17:39:41.226Z,29.00
2022-07-29T17:42:13.189Z,29.00
2022-07-29T17:44:41.649Z,28.86
2022-07-29T17:47:15.694Z,28.85
2022-07-29T17:49:44.918Z,28.79
2022-07-29T17:52:13.196Z,28.83
2022-07-29T17:54:41.056Z,28.89
2022-07-29T17:57:08.851Z,28.74
2022-07-29T17:59:38.002Z,28.68
2022-07-29T18:02:05.867Z,28.44
2022-07-29T18:04:33.710Z,28.21
2022-07-29T18:07:02.132Z,28.18
2022-07-29T18:09:30.007Z,28.09
2022-07-29T18:11:57.748Z,28.08
2022-07-29T18:14:25.517Z,27.88
2022-07-29T18:16:54.635Z,27.87
2022-07-29T18:19:22.463Z,27.76
2022-07-29T18:21:53.899Z,27.71
2022-07-29T18:24:25.154Z,27.68
2022-07-29T18:26:53.130Z,27.49
2022-07-29T18:29:20.975Z,27.58
2022-07-29T18:31:49.130Z,27.57
2022-07-29T18:34:18.268Z,27.38
2022-07-29T18:36:46.361Z,27.27
2022-07-29T18:39:20.047Z,27.24
2022-07-29T18:41:51.280Z,27.08
2022-07-29T18:44:21.914Z,27.05
2022-07-29T18:46:51.461Z,26.88
2022-07-29T18:49:21.308Z,26.83
2022-07-29T18:51:50.665Z,26.71
2022-07-29T18:54:19.012Z,26.52
2022-07-29T18:56:47.561Z,26.41
2022-07-29T18:59:17.168Z,26.26
2022-07-29T19:01:45.565Z,26.18
2022-07-29T19:04:13.468Z,26.09
2022-07-29T19:06:42.838Z,25.98
2022-07-29T19:09:10.817Z,25.88
2022-07-29T19:11:39.411Z,25.78
2022-07-29T19:14:08.353Z,25.73
2022-07-29T19:16:36.335Z,25.64
2022-07-29T19:19:04.772Z,25.60
2022-07-29T19:21:32.577Z,25.50
2022-07-29T19:24:06.832Z,25.41
2022-07-29T19:26:38.880Z,25.30
2022-07-29T19:29:06.670Z,25.10
2022-07-29T19:31:34.515Z,24.96
2022-07-29T19:34:02.306Z,24.83
2022-07-29T19:36:31.217Z,24.59
2022-07-29T19:39:00.380Z,24.40
2022-07-29T19:41:29.992Z,24.27
2022-07-29T19:43:57.854Z,24.17
2022-07-29T19:46:28.852Z,24.21
2022-07-29T19:48:57.209Z,24.21
2022-07-29T19:51:25.271Z,24.13
2022-07-29T19:53:53.089Z,24.02
2022-07-29T19:56:21.108Z,23.96
2022-07-29T19:58:50.178Z,23.93
2022-07-29T20:01:20.000Z,23.89
2022-07-29T20:03:47.875Z,23.85
2022-07-29T20:06:15.743Z,23.73
2022-07-29T20:08:45.061Z,23.68
2022-07-29T20:11:12.855Z,23.68
2022-07-29T20:13:40.609Z,23.64
2022-07-29T20:16:09.929Z,23.56
2022-07-29T20:18:37.776Z,23.49
2022-07-29T20:21:05.661Z,23.40
2022-07-29T20:23:33.839Z,23.31
2022-07-29T20:26:01.749Z,23.23
2022-07-29T20:28:29.604Z,23.17
2022-07-29T20:30:57.621Z,23.12
2022-07-29T20:33:27.184Z,23.05
2022-07-29T20:35:55.276Z,22.95
2022-07-29T20:38:23.047Z,22.87
2022-07-29T20:40:50.863Z,22.77
2022-07-29T20:43:18.690Z,22.73
2022-07-29T20:45:46.466Z,22.62
2022-07-29T20:48:14.320Z,22.52
2022-07-29T20:50:44.931Z,22.43
2022-07-29T20:53:13.012Z,22.38
2022-07-29T20:55:41.002Z,22.38
2022-07-29T20:58:08.891Z,22.36
2022-07-29T21:00:37.090Z,22.29
2022-07-29T21:03:04.967Z,22.26
2022-07-29T21:05:32.811Z,22.26
2022-07-29T21:08:01.928Z,22.16
2022-07-29T21:10:29.810Z,22.15
2022-07-29T21:12:57.685Z,22.03
2022-07-29T21:15:27.602Z,22.03
2022-07-29T21:18:03.027Z,21.98
2022-07-29T21:20:31.078Z,21.89
2022-07-29T21:22:58.924Z,21.88
2022-07-29T21:25:29.630Z,21.78
2022-07-29T21:28:16.099Z,21.72
2022-07-29T21:30:43.863Z,21.72
2022-07-29T21:33:11.713Z,21.71
2022-07-29T21:36:14.947Z,21.65
2022-07-29T21:38:27.690Z,21.74
2022-07-29T21:40:59.523Z,21.74
2022-07-29T21:43:28.785Z,21.75
2022-07-29T21:45:58.547Z,21.82
2022-07-29T21:48:28.239Z,21.80
2022-07-29T21:50:56.728Z,21.80
2022-07-29T21:53:26.915Z,21.75
2022-07-29T21:55:56.766Z,21.82
2022-07-29T21:58:24.898Z,21.79
2022-07-29T22:00:52.831Z,21.71
2022-07-29T22:03:20.858Z,21.72
2022-07-29T22:05:48.675Z,21.85
2022-07-29T22:08:16.467Z,21.84
2022-07-29T22:10:44.361Z,21.83
2022-07-29T22:13:13.478Z,21.70
2022-07-29T22:15:45.365Z,21.76
2022-07-29T22:18:21.066Z,21.65
2022-07-29T22:20:55.028Z,21.50
2022-07-29T22:23:27.830Z,21.48
2022-07-29T22:25:55.715Z,21.33
2022-07-29T22:28:24.853Z,21.16
2022-07-29T22:30:52.658Z,21.14
2022-07-29T22:33:20.614Z,20.98
2022-07-29T22:35:49.109Z,20.85
2022-07-29T22:38:17.538Z,20.71
2022-07-29T22:40:45.441Z,20.56
2022-07-29T22:43:13.258Z,20.50
2022-07-29T22:45:42.432Z,20.39
2022-07-29T22:48:10.548Z,20.43
2022-07-29T22:50:39.319Z,20.47
2022-07-29T22:53:07.122Z,20.45
2022-07-29T22:55:35.109Z,20.28
2022-07-29T22:58:02.995Z,20.19
2022-07-29T23:00:31.093Z,20.07
2022-07-29T23:03:00.276Z,19.95
2022-07-29T23:05:28.126Z,19.87
2022-07-29T23:07:56.001Z,19.75
2022-07-29T23:10:23.872Z,19.72
2022-07-29T23:12:51.738Z,19.68
2022-07-29T23:15:20.047Z,19.65
2022-07-29T23:17:47.842Z,19.59
2022-07-29T23:20:17.059Z,19.53
2022-07-29T23:22:45.378Z,19.49
2022-07-29T23:25:13.232Z,19.47
2022-07-29T23:27:41.273Z,19.45
2022-07-29T23:30:10.568Z,19.41
2022-07-29T23:32:38.662Z,19.36
2022-07-29T23:35:09.009Z,19.35
2022-07-29T23:37:38.285Z,19.35
2022-07-29T23:40:13.622Z,19.35
2022-07-29T23:42:42.976Z,19.41
2022-07-29T23:45:12.584Z,19.33
2022-07-29T23:47:42.255Z,19.10
2022-07-29T23:50:16.690Z,19.04
2022-07-29T23:52:45.873Z,19.00
2022-07-29T23:55:37.704Z,18.91
2022-07-29T23:58:03.008Z,18.94
